• Join FlightAware (Why Join?)
  • Login
  • US Flag 
10:24AM EDT


 

Airport Tracker/Info


-or-


 

Live Flight TrackerFlight Track Log ✈ N968CD ✈ 09-Sep-2013 ✈ KBHM - KPDK

Flight Track Log - Related Links

Times and Time Zones

All times are in EDT time to prevent confusion due to time zone crossing. See the N968CD flight status page for this flight to view local times or setup timezone preferences in your user account.

Time Position Orientation Groundspeed Altitude Reporting Facility
EDT Latitude Longitude Course Direction KTS MPH feet Rate Location/Type
03:17PM 33.5725 -86.7414 59° Northeast 121 139 1,100  Level Atlanta Center
03:18PM 33.5836 -86.7144 64° Northeast 123 142 1,500 600 Climbing Atlanta Center
03:19PM 33.6133 -86.6903 34° Northeast 139 160 2,100 660 Climbing Atlanta Center
03:20PM 33.6450 -86.6689 29° Northeast 136 157 2,800 660 Climbing Atlanta Center
03:21PM 33.6706 -86.6447 38° Northeast 130 150 3,400 720 Climbing Atlanta Center
03:22PM 33.7025 -86.6231 29° Northeast 130 150 4,200 660 Climbing Atlanta Center
03:23PM 33.5999 -86.4883 59° Northeast  Level Estimated
03:23PM 33.7364 -86.5992 30° Northeast 132 152 4,800  Level Atlanta Center
03:24PM 33.7619 -86.5675 46° Northeast 140 161 5,500 660 Climbing Atlanta Center
03:25PM 33.7794 -86.5281 62° Northeast 126 145 6,200 600 Climbing Atlanta Center
03:26PM 33.7947 -86.4961 60° Northeast 116 133 6,800 300 Climbing Atlanta Center
03:27PM 33.8039 -86.4539 75° East 121 139 6,900 60 Climbing Atlanta Center
03:28PM 33.8175 -86.4042 72° East 135 155 7,000  Climbing Atlanta Center
03:29PM 33.8331 -86.3569 68° East 142 163 7,000  Level Atlanta Center
03:30PM 33.8444 -86.3047 75° East 155 178 7,000  Level Atlanta Center
03:31PM 33.8600 -86.2503 71° East 155 178 7,000  Level Atlanta Center
03:32PM 33.8733 -86.2031 71° East 160 184 7,000  Level Atlanta Center
03:33PM 33.8847 -86.1533 75° East 154 177 7,000  Level Atlanta Center
03:34PM 33.9003 -86.0961 72° East 159 183 7,000  Level Atlanta Center
03:35PM 33.9136 -86.0464 72° East 159 183 7,000  Level Atlanta Center
03:36PM 33.9269 -85.9942 73° East 159 183 7,000  Level Atlanta Center
03:37PM 33.9403 -85.9419 73° East 165 190 7,000  Level Atlanta Center
03:38PM 33.9556 -85.8894 71° East 165 190 7,000  Level Atlanta Center
03:39PM 33.9669 -85.8347 76° East 165 190 7,000  Level Atlanta Center
03:40PM 33.9739 -85.7797 81° East 165 190 7,100  Climbing Atlanta Center
03:41PM 33.9706 -85.7244 94° East 159 183 7,100  Level Atlanta Center
03:42PM 33.9711 -85.6769 89° East 159 183 7,100  Level Atlanta Center
03:43PM 33.9700 -85.6194 91° East 159 183 7,100  Level Atlanta Center
03:44PM 33.9686 -85.5642 92° East 159 183 7,100 -120 Level Atlanta Center
03:45PM 33.9692 -85.5092 89° East 159 183 6,900 -360 Descending Atlanta Center
03:46PM 33.9636 -85.4489 96° East 165 190 6,400 -540 Descending Atlanta Center
03:47PM 33.9642 -85.3914 89° East 165 190 5,900 -540 Descending Atlanta Center
03:48PM 33.9650 -85.3286 89° East 172 198 5,400 -420 Descending Atlanta Center
03:49PM 33.9614 -85.2636 94° East 178 205 5,100 -180 Descending Atlanta Center
03:50PM 33.9597 -85.2083 92° East 172 198 5,100  Level Atlanta Center
03:51PM 33.9603 -85.1533 89° East 172 198 5,100  Level Atlanta Center
03:52PM 33.9589 -85.0983 92° East 160 184 5,100  Level Atlanta Center
03:53PM 33.9572 -85.0456 92° East 160 184 5,100  Level Atlanta Center
03:54PM 33.9556 -84.9906 92° East 160 184 5,100  Level Atlanta Center
03:55PM 33.9789 -84.9406 61° Northeast 155 178 5,100  Level Atlanta Center
03:56PM 33.9939 -84.8931 69° East 155 178 5,100  Level Atlanta Center
03:57PM 33.9817 -84.8406 106° East 145 167 5,100 -60 Level Atlanta Center
03:59PM 33.9500 -84.7167 107° East 161 185 5,000 -60 Descending Atlanta TRACON
04:00PM 33.9500 -84.6667 90° East 163 188 5,000  Level Atlanta TRACON
04:01PM 33.9333 -84.6167 112° Southeast 164 189 5,000  Level Atlanta TRACON
04:02PM 33.9333 -84.5667 90° East 147 169 5,000 -240 Level Atlanta TRACON
04:03PM 33.9167 -84.5167 112° Southeast 135 155 4,600 -600 Descending Atlanta TRACON
04:04PM 33.9000 -84.4667 112° Southeast 148 170 3,900 -660 Descending Atlanta TRACON
04:05PM 33.9000 -84.4333 90° East 157 181 3,400 -600 Descending Atlanta TRACON
04:06PM 33.8833 -84.3667 107° East 159 183 2,700 -720 Descending Atlanta TRACON
04:07PM 33.8500 -84.3333 140° Southeast 150 173 1,900 -840 Descending Atlanta TRACON
04:09PM 33.8667 -84.3000 90° East  Level FlightAware Approximate
04:16PM 33.8756 -84.3020 90° East  Level Estimated